Addicks, Texas
Current Conditions -  °F | °C
As of 3:53 AM on Monday 26 Jan 2015 (Local Time) from KSGR Reporting Station
Clear Clear  
Wind Chill: 39°   Ceiling: Unl
Heat Index: 43°   Visibility: 10mi
Dew Point: 31°   Wind: 6mph
Humidity: 62%   Direction: 260°W
Pressure: 30.17"   Gusts: NA
Location:  29.7757°N, 95.6037°W
Report Text: KSGR 260953Z AUTO 26005KT 10SM CLR 06/M01 A3017 RMK AO2 SLP217 T00611006
Loading
Personal Weather Stations






























Interactive Weather Map New forecast layout! Learn more

10-Day Weather Forecast

Advertisements
Track Severe Weather on mobile